createdAt,value
2018-09-29T00:00:57.060Z,73.74
2018-09-29T00:01:57.095Z,74.36
2018-09-29T00:02:57.053Z,73.54
2018-09-29T00:03:57.037Z,73.54
2018-09-29T00:04:57.022Z,74.05
2018-09-29T00:05:57.020Z,74.15
2018-09-29T00:06:57.023Z,73.27
2018-09-29T00:07:56.988Z,73.23
2018-09-29T00:08:56.974Z,73.16
2018-09-29T00:09:56.966Z,73.68
2018-09-29T00:10:56.951Z,74.19
2018-09-29T00:11:56.961Z,74.19
2018-09-29T00:12:56.957Z,73.57
2018-09-29T00:13:56.921Z,74.80
2018-09-29T00:14:56.905Z,74.49
2018-09-29T00:15:56.895Z,74.39
2018-09-29T00:16:56.887Z,74.29
2018-09-29T00:17:56.903Z,74.29
2018-09-29T00:18:56.865Z,73.47
2018-09-29T00:19:56.845Z,72.44
2018-09-29T00:20:56.836Z,72.55
2018-09-29T00:21:56.833Z,72.65
2018-09-29T00:22:56.847Z,72.86
2018-09-29T00:23:56.800Z,73.78
2018-09-29T00:24:56.803Z,74.29
2018-09-29T00:25:56.778Z,73.68
2018-09-29T00:26:56.789Z,73.78
2018-09-29T00:27:56.757Z,73.16
2018-09-29T00:28:56.780Z,73.57
2018-09-29T00:29:56.732Z,73.27
2018-09-29T00:30:56.724Z,72.86
2018-09-29T00:31:56.709Z,72.96
2018-09-29T00:32:56.699Z,73.06
2018-09-29T00:33:56.730Z,73.88
2018-09-29T00:34:56.675Z,72.75
2018-09-29T00:35:56.664Z,72.75
2018-09-29T00:36:56.660Z,72.44
2018-09-29T00:37:56.648Z,71.52
2018-09-29T00:38:56.668Z,71.42
2018-09-29T00:39:56.623Z,71.22
2018-09-29T00:40:56.613Z,71.11
2018-09-29T00:41:56.599Z,70.91
2018-09-29T00:42:56.599Z,70.19
2018-09-29T00:43:56.609Z,70.64
2018-09-29T00:44:56.563Z,69.98
2018-09-29T00:45:56.553Z,69.47
2018-09-29T00:46:56.548Z,69.92
2018-09-29T00:47:56.529Z,70.12
2018-09-29T00:48:56.549Z,69.71
2018-09-29T00:49:56.531Z,69.71
2018-09-29T00:50:56.496Z,69.51
2018-09-29T00:51:56.489Z,69.40
2018-09-29T00:52:56.480Z,68.27
2018-09-29T00:53:56.462Z,68.68
2018-09-29T00:54:56.476Z,69.30
2018-09-29T00:55:56.441Z,68.99
2018-09-29T00:56:56.433Z,69.51
2018-09-29T00:57:56.423Z,69.30
2018-09-29T00:58:56.406Z,69.61
2018-09-29T00:59:56.427Z,70.53
2018-09-29T01:00:56.390Z,70.02
2018-09-29T01:01:56.377Z,69.81
2018-09-29T01:02:56.362Z,70.32
2018-09-29T01:03:56.354Z,70.53
2018-09-29T01:04:56.382Z,69.23
2018-09-29T01:05:56.330Z,70.15
2018-09-29T01:06:56.329Z,70.77
2018-09-29T01:07:56.350Z,71.28
2018-09-29T01:08:56.295Z,70.84
2018-09-29T01:09:56.289Z,70.26
2018-09-29T01:10:56.297Z,70.97
2018-09-29T01:11:56.263Z,69.51
2018-09-29T01:12:56.250Z,70.87
2018-09-29T01:13:56.240Z,71.28
2018-09-29T01:14:56.230Z,69.54
2018-09-29T01:15:56.233Z,69.33
2018-09-29T01:16:56.206Z,69.23
2018-09-29T01:17:56.196Z,69.95
2018-09-29T01:18:56.188Z,70.36
2018-09-29T01:19:56.170Z,70.77
2018-09-29T01:20:56.188Z,70.36
2018-09-29T01:21:56.148Z,70.67
2018-09-29T01:22:56.139Z,70.77
2018-09-29T01:23:56.128Z,70.77
2018-09-29T01:24:56.114Z,70.77
2018-09-29T01:25:56.105Z,70.87
2018-09-29T01:26:56.130Z,71.39
2018-09-29T01:27:56.088Z,70.56
2018-09-29T01:28:56.075Z,70.18
2018-09-29T01:29:56.064Z,70.50
2018-09-29T01:30:56.047Z,70.80
2018-09-29T01:31:56.065Z,70.29
2018-09-29T01:32:56.032Z,70.29
2018-09-29T01:33:56.015Z,70.80
2018-09-29T01:34:56.005Z,70.77
2018-09-29T01:35:55.990Z,70.29
2018-09-29T01:36:56.019Z,70.42
2018-09-29T01:37:55.971Z,71.11
2018-09-29T01:38:55.956Z,71.11
2018-09-29T01:39:55.948Z,71.72
2018-09-29T01:40:55.938Z,71.31
2018-09-29T01:41:55.931Z,70.29
2018-09-29T01:42:55.932Z,70.39
2018-09-29T01:43:55.899Z,70.60
2018-09-29T01:44:55.890Z,70.50
2018-09-29T01:45:55.881Z,70.08
2018-09-29T01:46:55.870Z,71.42
2018-09-29T01:47:55.881Z,70.73
2018-09-29T01:48:55.846Z,69.88
2018-09-29T01:49:55.832Z,70.50
2018-09-29T01:50:55.822Z,70.90
2018-09-29T01:51:55.814Z,70.70
2018-09-29T01:52:55.829Z,70.32
2018-09-29T01:53:55.785Z,70.63
2018-09-29T01:54:55.780Z,70.42
2018-09-29T01:55:55.764Z,70.84
2018-09-29T01:56:55.755Z,70.94
2018-09-29T01:57:55.766Z,70.63
2018-09-29T01:58:55.765Z,70.94
2018-09-29T01:59:55.718Z,71.55
2018-09-29T02:00:55.717Z,71.76
2018-09-29T02:01:55.696Z,72.06
2018-09-29T02:02:55.683Z,72.38
2018-09-29T02:03:55.699Z,72.06
2018-09-29T02:04:55.670Z,72.17
2018-09-29T02:05:55.651Z,72.00
2018-09-29T02:06:55.641Z,71.89
2018-09-29T02:07:55.704Z,72.00
2018-09-29T02:08:55.661Z,72.51
2018-09-29T02:09:55.607Z,71.38
2018-09-29T02:10:55.598Z,72.61
2018-09-29T02:11:55.583Z,72.92
2018-09-29T02:12:55.576Z,72.31
2018-09-29T02:13:55.566Z,72.61
2018-09-29T02:14:55.568Z,72.00
2018-09-29T02:15:55.540Z,72.61
2018-09-29T02:16:55.527Z,73.23
2018-09-29T02:17:55.516Z,72.20
2018-09-29T02:18:55.503Z,71.69
2018-09-29T02:19:55.520Z,72.20
2018-09-29T02:20:55.479Z,72.92
2018-09-29T02:21:55.482Z,74.57
2018-09-29T02:22:55.461Z,73.78
2018-09-29T02:23:55.455Z,73.57
2018-09-29T02:24:55.463Z,74.08
2018-09-29T02:25:55.428Z,73.06
2018-09-29T02:26:55.415Z,73.68
2018-09-29T02:27:55.402Z,73.98
2018-09-29T02:28:55.440Z,73.71
2018-09-29T02:29:55.419Z,74.29
2018-09-29T02:30:55.385Z,73.36
2018-09-29T02:31:55.362Z,73.57
2018-09-29T02:32:55.347Z,74.19
2018-09-29T02:33:55.350Z,73.57
2018-09-29T02:34:55.329Z,73.47
2018-09-29T02:35:55.379Z,72.55
2018-09-29T02:36:55.302Z,72.96
2018-09-29T02:37:55.291Z,74.50
2018-09-29T02:38:55.310Z,73.68
2018-09-29T02:39:55.282Z,74.08
2018-09-29T02:40:55.325Z,75.25
2018-09-29T02:41:55.248Z,72.89
2018-09-29T02:42:55.259Z,72.99
2018-09-29T02:43:55.225Z,74.53
2018-09-29T02:44:55.214Z,75.46
2018-09-29T02:45:55.236Z,76.07
2018-09-29T02:46:55.194Z,74.63
2018-09-29T02:47:55.180Z,75.46
2018-09-29T02:48:55.171Z,75.76
2018-09-29T02:49:55.159Z,76.07
2018-09-29T02:50:55.177Z,75.56
2018-09-29T02:51:55.136Z,75.46
2018-09-29T02:52:55.178Z,76.01
2018-09-29T02:53:55.118Z,74.98
2018-09-29T02:54:55.102Z,75.67
2018-09-29T02:55:55.087Z,76.01
2018-09-29T02:56:55.103Z,76.21
2018-09-29T02:57:55.072Z,76.62
2018-09-29T02:58:55.054Z,77.58
2018-09-29T02:59:55.056Z,77.24
2018-09-29T03:00:55.037Z,77.28
2018-09-29T03:01:55.041Z,78.30
2018-09-29T03:02:55.014Z,78.24
2018-09-29T03:03:54.999Z,78.75
2018-09-29T03:04:54.988Z,79.27
2018-09-29T03:05:54.978Z,80.09
2018-09-29T03:06:54.982Z,79.68
2018-09-29T03:07:54.964Z,79.27
2018-09-29T03:08:54.970Z,79.79
2018-09-29T03:09:54.935Z,80.23
2018-09-29T03:10:54.925Z,80.65
2018-09-29T03:11:54.940Z,80.65
2018-09-29T03:12:54.905Z,80.30
2018-09-29T03:13:54.891Z,81.12
2018-09-29T03:14:54.880Z,80.30
2018-09-29T03:15:54.869Z,80.09
2018-09-29T03:16:54.894Z,80.40
2018-09-29T03:17:54.850Z,80.61
2018-09-29T03:18:54.834Z,81.02
2018-09-29T03:19:54.819Z,81.37
2018-09-29T03:20:54.809Z,81.57
2018-09-29T03:21:54.801Z,81.43
2018-09-29T03:22:54.889Z,81.26
2018-09-29T03:23:54.777Z,81.26
2018-09-29T03:24:54.760Z,81.26
2018-09-29T03:25:54.758Z,81.98
2018-09-29T03:26:54.744Z,81.98
2018-09-29T03:27:54.750Z,81.77
2018-09-29T03:28:54.716Z,82.09
2018-09-29T03:29:54.707Z,81.67
2018-09-29T03:30:54.698Z,81.57
2018-09-29T03:31:54.776Z,81.95
2018-09-29T03:32:54.697Z,81.88
2018-09-29T03:33:54.657Z,81.74
2018-09-29T03:34:54.652Z,81.57
2018-09-29T03:35:54.643Z,81.98
2018-09-29T03:36:54.632Z,82.29
2018-09-29T03:37:54.679Z,83.42
2018-09-29T03:38:54.610Z,81.47
2018-09-29T03:39:54.606Z,81.98
2018-09-29T03:40:54.582Z,81.77
2018-09-29T03:41:54.577Z,81.26
2018-09-29T03:42:54.573Z,81.05
2018-09-29T03:43:54.578Z,81.12
2018-09-29T03:44:54.540Z,80.61
2018-09-29T03:45:54.561Z,80.61
2018-09-29T03:46:54.514Z,80.91
2018-09-29T03:47:54.508Z,79.68
2018-09-29T03:48:54.535Z,78.86
2018-09-29T03:49:54.481Z,78.34
2018-09-29T03:50:54.474Z,78.14
2018-09-29T03:51:54.470Z,78.55
2018-09-29T03:52:54.449Z,79.27
2018-09-29T03:53:54.467Z,78.24
2018-09-29T03:54:54.435Z,75.15
2018-09-29T03:55:54.413Z,74.74
2018-09-29T03:56:54.408Z,75.87
2018-09-29T03:57:54.403Z,75.97
2018-09-29T03:58:54.420Z,73.81
2018-09-29T03:59:54.373Z,74.84
2018-09-29T04:00:54.368Z,75.12
2018-09-29T04:01:54.346Z,75.42
2018-09-29T04:02:54.343Z,75.12
2018-09-29T04:03:54.332Z,74.29
2018-09-29T04:04:54.354Z,73.78
2018-09-29T04:05:54.317Z,73.26
2018-09-29T04:06:54.299Z,72.54
2018-09-29T04:07:54.281Z,72.13
2018-09-29T04:08:54.280Z,72.03
2018-09-29T04:09:54.291Z,72.24
2018-09-29T04:10:54.247Z,72.61
2018-09-29T04:11:54.241Z,71.51
2018-09-29T04:12:54.229Z,71.48
2018-09-29T04:13:54.281Z,71.69
2018-09-29T04:14:54.249Z,70.97
2018-09-29T04:15:54.194Z,71.07
2018-09-29T04:16:54.190Z,70.76
2018-09-29T04:17:54.173Z,70.66
2018-09-29T04:18:54.158Z,70.94
2018-09-29T04:19:54.199Z,70.14
2018-09-29T04:20:54.140Z,69.12
2018-09-29T04:21:54.125Z,68.80
2018-09-29T04:22:54.114Z,68.60
2018-09-29T04:23:54.106Z,68.91
2018-09-29T04:24:54.090Z,68.05
2018-09-29T04:25:54.122Z,68.46
2018-09-29T04:26:54.077Z,68.37
2018-09-29T04:27:54.061Z,68.37
2018-09-29T04:28:54.044Z,67.03
2018-09-29T04:29:54.041Z,68.46
2018-09-29T04:30:54.048Z,66.61
2018-09-29T04:31:54.010Z,66.64
2018-09-29T04:32:54.002Z,67.03
2018-09-29T04:33:53.990Z,66.82
2018-09-29T04:34:53.978Z,66.61
2018-09-29T04:35:54.015Z,68.08
2018-09-29T04:36:53.961Z,66.51
2018-09-29T04:37:53.946Z,68.46
2018-09-29T04:38:53.935Z,67.36
2018-09-29T04:39:53.925Z,67.54
2018-09-29T04:40:53.936Z,67.57
2018-09-29T04:41:53.928Z,67.54
2018-09-29T04:42:53.886Z,67.85
2018-09-29T04:43:53.882Z,67.03
2018-09-29T04:44:53.869Z,66.93
2018-09-29T04:45:53.852Z,67.47
2018-09-29T04:46:53.867Z,66.75
2018-09-29T04:47:53.844Z,66.51
2018-09-29T04:48:53.819Z,66.93
2018-09-29T04:49:53.810Z,66.93
2018-09-29T04:50:53.804Z,66.82
2018-09-29T04:51:53.814Z,67.68
2018-09-29T04:52:53.791Z,66.96
2018-09-29T04:53:53.771Z,67.33
2018-09-29T04:54:53.759Z,66.51
2018-09-29T04:55:53.756Z,66.64
2018-09-29T04:56:53.768Z,67.54
2018-09-29T04:57:53.728Z,67.06
2018-09-29T04:58:53.721Z,66.82
2018-09-29T04:59:53.703Z,66.44
2018-09-29T05:00:53.705Z,66.64
2018-09-29T05:01:53.688Z,66.64
2018-09-29T05:02:53.680Z,67.26
2018-09-29T05:03:53.659Z,67.03
2018-09-29T05:04:53.640Z,66.85
2018-09-29T05:05:53.636Z,66.54
2018-09-29T05:06:53.628Z,67.26
2018-09-29T05:07:53.630Z,66.54
2018-09-29T05:08:53.614Z,66.54
2018-09-29T05:09:53.593Z,66.64
2018-09-29T05:10:53.593Z,67.36
2018-09-29T05:11:53.580Z,67.06
2018-09-29T05:12:53.601Z,66.75
2018-09-29T05:13:53.652Z,66.85
2018-09-29T05:14:53.548Z,66.44
2018-09-29T05:15:53.525Z,66.64
2018-09-29T05:16:53.532Z,67.06
2018-09-29T05:17:53.504Z,67.16
2018-09-29T05:18:53.506Z,66.64
2018-09-29T05:19:53.481Z,67.54
2018-09-29T05:20:53.470Z,68.29
2018-09-29T05:21:53.462Z,67.06
2018-09-29T05:22:53.454Z,67.78
2018-09-29T05:23:53.450Z,67.68
2018-09-29T05:24:53.416Z,67.88
2018-09-29T05:25:53.406Z,68.50
2018-09-29T05:26:53.403Z,66.85
2018-09-29T05:27:53.383Z,67.06
2018-09-29T05:28:53.451Z,66.44
2018-09-29T05:29:53.375Z,67.47
2018-09-29T05:30:53.376Z,67.57
2018-09-29T05:31:53.340Z,67.98
2018-09-29T05:32:53.337Z,68.29
2018-09-29T05:33:53.352Z,68.29
2018-09-29T05:34:53.305Z,66.96
2018-09-29T05:35:53.303Z,67.16
2018-09-29T05:36:53.283Z,67.57
2018-09-29T05:37:53.271Z,67.36
2018-09-29T05:38:53.268Z,67.57
2018-09-29T05:39:53.273Z,67.16
2018-09-29T05:40:53.238Z,67.26
2018-09-29T05:41:53.229Z,68.70
2018-09-29T05:42:53.217Z,67.78
2018-09-29T05:43:53.227Z,69.09
2018-09-29T05:44:53.217Z,66.75
2018-09-29T05:45:53.186Z,68.70
2018-09-29T05:46:53.183Z,67.26
2018-09-29T05:47:53.177Z,68.19
2018-09-29T05:48:53.148Z,68.05
2018-09-29T05:49:53.196Z,67.57
2018-09-29T05:50:53.128Z,68.60
2018-09-29T05:51:53.113Z,67.03
2018-09-29T05:52:53.105Z,67.06
2018-09-29T05:53:53.130Z,68.70
2018-09-29T05:54:53.105Z,67.57
2018-09-29T05:55:53.097Z,67.47
2018-09-29T05:56:53.062Z,67.78
2018-09-29T05:57:53.052Z,67.44
2018-09-29T05:58:53.038Z,67.85
2018-09-29T05:59:53.027Z,68.57
2018-09-29T06:00:53.037Z,67.68
2018-09-29T06:01:53.004Z,68.26
2018-09-29T06:02:53.011Z,68.50
2018-09-29T06:03:52.989Z,67.16
2018-09-29T06:04:52.978Z,67.06
2018-09-29T06:05:52.983Z,67.47
2018-09-29T06:06:52.957Z,68.05
2018-09-29T06:07:52.961Z,67.98
2018-09-29T06:08:52.935Z,68.19
2018-09-29T06:09:52.923Z,68.29
2018-09-29T06:10:52.903Z,67.78
2018-09-29T06:11:52.898Z,69.01
2018-09-29T06:12:52.905Z,68.46
2018-09-29T06:13:52.869Z,68.46
2018-09-29T06:14:52.866Z,68.57
2018-09-29T06:15:52.856Z,68.77
2018-09-29T06:16:52.833Z,68.70
2018-09-29T06:17:52.858Z,68.26
2018-09-29T06:18:52.823Z,68.70
2018-09-29T06:19:52.804Z,68.46
2018-09-29T06:20:52.844Z,68.46
2018-09-29T06:21:52.777Z,68.67
2018-09-29T06:22:52.773Z,67.13
2018-09-29T06:23:52.793Z,68.46
2018-09-29T06:24:52.758Z,67.98
2018-09-29T06:25:52.739Z,68.46
2018-09-29T06:26:52.743Z,68.60
2018-09-29T06:27:52.736Z,68.77
2018-09-29T06:28:52.732Z,67.85
2018-09-29T06:29:52.713Z,68.05
2018-09-29T06:30:52.682Z,68.74
2018-09-29T06:31:52.667Z,68.05
2018-09-29T06:32:52.678Z,68.37
2018-09-29T06:33:52.670Z,67.92
2018-09-29T06:34:52.643Z,68.43
2018-09-29T06:35:52.638Z,68.64
2018-09-29T06:36:52.659Z,67.92
2018-09-29T06:37:52.602Z,67.20
2018-09-29T06:38:52.625Z,67.20
2018-09-29T06:39:52.593Z,67.41
2018-09-29T06:40:52.683Z,66.96
2018-09-29T06:41:52.567Z,66.86
2018-09-29T06:42:52.547Z,66.96
2018-09-29T06:43:52.562Z,67.27
2018-09-29T06:44:52.564Z,66.76
2018-09-29T06:45:52.515Z,66.76
2018-09-29T06:46:52.508Z,67.07
2018-09-29T06:47:52.571Z,66.66
2018-09-29T06:48:52.493Z,67.27
2018-09-29T06:49:52.529Z,66.66
2018-09-29T06:50:52.478Z,66.76
2018-09-29T06:51:52.456Z,65.91
2018-09-29T06:52:52.444Z,66.76
2018-09-29T06:53:52.424Z,66.42
2018-09-29T06:54:52.410Z,66.66
2018-09-29T06:55:52.424Z,66.35
2018-09-29T06:56:52.398Z,66.93
2018-09-29T06:57:52.377Z,66.76
2018-09-29T06:58:52.361Z,66.96
2018-09-29T06:59:52.355Z,67.17
2018-09-29T07:00:52.359Z,66.96
2018-09-29T07:01:52.330Z,67.79
2018-09-29T07:02:52.376Z,67.79
2018-09-29T07:03:52.313Z,67.99
2018-09-29T07:04:52.292Z,67.79
2018-09-29T07:05:52.310Z,68.19
2018-09-29T07:06:52.279Z,67.76
2018-09-29T07:07:52.262Z,67.17
2018-09-29T07:08:52.248Z,66.96
2018-09-29T07:09:52.245Z,68.10
2018-09-29T07:10:52.250Z,68.48
2018-09-29T07:11:52.227Z,67.96
2018-09-29T07:12:52.265Z,68.37
2018-09-29T07:13:52.191Z,66.42
2018-09-29T07:14:52.181Z,67.44
2018-09-29T07:15:52.196Z,66.42
2018-09-29T07:16:52.158Z,68.24
2018-09-29T07:17:52.147Z,68.06
2018-09-29T07:18:52.140Z,66.90
2018-09-29T07:19:52.124Z,66.49
2018-09-29T07:20:52.145Z,66.87
2018-09-29T07:21:52.200Z,66.67
2018-09-29T07:22:52.093Z,66.39
2018-09-29T07:23:52.079Z,66.28
2018-09-29T07:24:52.072Z,65.33
2018-09-29T07:25:52.125Z,66.67
2018-09-29T07:26:52.073Z,66.46
2018-09-29T07:27:52.035Z,66.36
2018-09-29T07:28:52.025Z,66.46
2018-09-29T07:29:52.016Z,66.36
2018-09-29T07:30:52.001Z,65.54
2018-09-29T07:31:52.013Z,65.23
2018-09-29T07:32:51.978Z,66.67
2018-09-29T07:33:51.974Z,64.51
2018-09-29T07:34:51.968Z,65.20
2018-09-29T07:35:51.945Z,64.61
2018-09-29T07:36:51.973Z,65.74
2018-09-29T07:37:51.918Z,66.97
2018-09-29T07:38:51.909Z,65.61
2018-09-29T07:39:51.904Z,64.59
2018-09-29T07:40:51.901Z,64.41
2018-09-29T07:41:51.877Z,65.10
2018-09-29T07:42:51.886Z,65.41
2018-09-29T07:43:51.850Z,65.12
2018-09-29T07:44:51.845Z,65.00
2018-09-29T07:45:51.844Z,65.30
2018-09-29T07:46:51.820Z,64.79
2018-09-29T07:47:51.836Z,64.86
2018-09-29T07:48:51.807Z,64.65
2018-09-29T07:49:51.824Z,63.94
2018-09-29T07:50:51.775Z,63.84
2018-09-29T07:51:51.763Z,64.04
2018-09-29T07:52:51.754Z,64.35
2018-09-29T07:53:51.740Z,63.60
2018-09-29T07:54:51.875Z,64.42
2018-09-29T07:55:51.719Z,63.50
2018-09-29T07:56:51.707Z,63.40
2018-09-29T07:57:51.708Z,62.76
2018-09-29T07:58:51.719Z,63.37
2018-09-29T07:59:51.674Z,62.24
2018-09-29T08:00:51.663Z,62.55
2018-09-29T08:01:51.647Z,62.83
2018-09-29T08:02:51.638Z,61.91
2018-09-29T08:03:51.652Z,62.32
2018-09-29T08:04:51.614Z,62.24
2018-09-29T08:05:51.610Z,60.78
2018-09-29T08:06:51.594Z,60.99
2018-09-29T08:07:51.583Z,61.60
2018-09-29T08:08:51.607Z,61.50
2018-09-29T08:09:51.561Z,62.73
2018-09-29T08:10:51.548Z,62.32
2018-09-29T08:11:51.541Z,62.11
2018-09-29T08:12:51.525Z,61.60
2018-09-29T08:13:51.515Z,61.60
2018-09-29T08:14:51.541Z,61.60
2018-09-29T08:15:51.499Z,62.52
2018-09-29T08:16:51.482Z,61.60
2018-09-29T08:17:51.481Z,60.65
2018-09-29T08:18:51.462Z,61.26
2018-09-29T08:19:51.484Z,60.35
2018-09-29T08:20:51.438Z,63.31
2018-09-29T08:21:51.425Z,62.08
2018-09-29T08:22:51.419Z,61.75
2018-09-29T08:23:51.444Z,61.13
2018-09-29T08:24:51.397Z,60.42
2018-09-29T08:25:51.416Z,60.31
2018-09-29T08:26:51.371Z,61.21
2018-09-29T08:27:51.358Z,61.65
2018-09-29T08:28:51.356Z,60.60
2018-09-29T08:29:51.339Z,60.49
2018-09-29T08:30:51.357Z,60.49
2018-09-29T08:31:51.321Z,60.69
2018-09-29T08:32:51.307Z,60.39
2018-09-29T08:33:51.299Z,60.46
2018-09-29T08:34:51.301Z,60.67
2018-09-29T08:35:51.398Z,60.97
2018-09-29T08:36:51.261Z,60.67
2018-09-29T08:37:51.310Z,60.87
2018-09-29T08:38:51.238Z,59.55
2018-09-29T08:39:51.234Z,60.26
2018-09-29T08:40:51.251Z,59.85
2018-09-29T08:41:51.245Z,60.05
2018-09-29T08:42:51.199Z,59.82
2018-09-29T08:43:51.192Z,58.29
2018-09-29T08:44:51.172Z,58.29
2018-09-29T08:45:51.183Z,59.18
2018-09-29T08:46:51.182Z,59.21
2018-09-29T08:47:51.137Z,58.39
2018-09-29T08:48:51.133Z,59.08
2018-09-29T08:49:51.120Z,58.60
2018-09-29T08:50:51.141Z,58.70
2018-09-29T08:51:51.100Z,57.45
2018-09-29T08:52:51.080Z,58.29
2018-09-29T08:53:51.071Z,58.29
2018-09-29T08:54:51.091Z,57.57
2018-09-29T08:55:51.046Z,59.11
2018-09-29T08:56:51.036Z,59.11
2018-09-29T08:57:51.021Z,57.96
2018-09-29T08:58:51.011Z,57.55
2018-09-29T08:59:51.033Z,57.07
2018-09-29T09:00:50.994Z,57.24
2018-09-29T09:01:50.978Z,58.06
2018-09-29T09:02:50.974Z,57.37
2018-09-29T09:03:50.969Z,59.08
2018-09-29T09:04:50.986Z,59.52
2018-09-29T09:05:50.938Z,57.45
2018-09-29T09:06:50.921Z,58.06
2018-09-29T09:07:50.916Z,59.16
2018-09-29T09:08:50.906Z,59.66
2018-09-29T09:09:50.896Z,59.56
2018-09-29T09:10:50.930Z,58.03
2018-09-29T09:11:50.873Z,58.03
2018-09-29T09:12:50.880Z,58.44
2018-09-29T09:13:50.850Z,60.89
2018-09-29T09:14:50.876Z,58.82
2018-09-29T09:15:50.849Z,58.01
2018-09-29T09:16:50.867Z,59.12
2018-09-29T09:17:50.805Z,57.39
2018-09-29T09:18:50.796Z,57.80
2018-09-29T09:19:50.776Z,57.09
2018-09-29T09:20:50.794Z,58.01
2018-09-29T09:21:50.763Z,59.12
2018-09-29T09:22:50.808Z,55.84
2018-09-29T09:23:50.773Z,56.65
2018-09-29T09:24:50.731Z,56.76
2018-09-29T09:25:50.764Z,57.37
2018-09-29T09:26:50.713Z,55.94
2018-09-29T09:27:50.689Z,55.63
2018-09-29T09:28:50.676Z,55.02
2018-09-29T09:29:50.688Z,56.76
2018-09-29T09:30:50.657Z,57.14
2018-09-29T09:31:50.675Z,56.93
2018-09-29T09:32:50.633Z,55.13
2018-09-29T09:33:50.641Z,56.24
2018-09-29T09:34:50.639Z,57.57
2018-09-29T09:35:50.600Z,56.65
2018-09-29T09:36:50.592Z,57.17
2018-09-29T09:37:50.591Z,56.96
2018-09-29T09:38:50.578Z,56.24
2018-09-29T09:39:50.576Z,56.65
2018-09-29T09:40:50.548Z,55.63
2018-09-29T09:41:50.567Z,57.39
2018-09-29T09:42:50.540Z,56.68
2018-09-29T09:43:50.513Z,57.29
2018-09-29T09:44:50.499Z,58.82
2018-09-29T09:45:50.488Z,56.78
2018-09-29T09:46:50.482Z,56.99
2018-09-29T09:47:50.489Z,57.50
2018-09-29T09:48:50.455Z,58.11
2018-09-29T09:49:50.465Z,58.41
2018-09-29T09:50:50.430Z,57.26
2018-09-29T09:51:50.458Z,56.65
2018-09-29T09:52:50.458Z,56.96
2018-09-29T09:53:50.398Z,56.35
2018-09-29T09:54:50.393Z,55.13
2018-09-29T09:55:50.410Z,55.33
2018-09-29T09:56:50.378Z,55.53
2018-09-29T09:57:50.376Z,55.51
2018-09-29T09:58:50.371Z,56.93
2018-09-29T09:59:50.343Z,56.42
2018-09-29T10:00:50.317Z,56.83
2018-09-29T10:01:50.316Z,55.18
2018-09-29T10:02:50.300Z,55.68
2018-09-29T10:03:50.312Z,56.20
2018-09-29T10:04:50.353Z,55.38
2018-09-29T10:05:50.283Z,55.79
2018-09-29T10:06:50.264Z,55.79
2018-09-29T10:07:50.292Z,56.70
2018-09-29T10:08:50.236Z,55.55
2018-09-29T10:09:50.227Z,56.88
2018-09-29T10:10:50.207Z,57.29
2018-09-29T10:11:50.198Z,55.25
2018-09-29T10:12:50.233Z,55.15
2018-09-29T10:13:50.188Z,54.44
2018-09-29T10:14:50.165Z,55.66
2018-09-29T10:15:50.152Z,55.83
2018-09-29T10:16:50.148Z,56.34
2018-09-29T10:17:50.129Z,56.07
2018-09-29T10:18:50.139Z,55.02
2018-09-29T10:19:50.106Z,55.63
2018-09-29T10:20:50.097Z,56.65
2018-09-29T10:21:50.111Z,56.93
2018-09-29T10:22:50.085Z,56.82
2018-09-29T10:23:50.095Z,55.20
2018-09-29T10:24:50.060Z,55.40
2018-09-29T10:25:50.040Z,56.62
2018-09-29T10:26:50.033Z,54.79
2018-09-29T10:27:50.119Z,54.08
2018-09-29T10:28:50.043Z,54.69
2018-09-29T10:29:49.995Z,53.88
2018-09-29T10:30:49.998Z,53.98
2018-09-29T10:31:49.998Z,54.69
2018-09-29T10:32:49.963Z,54.39
2018-09-29T10:33:49.959Z,55.20
2018-09-29T10:34:49.939Z,55.83
2018-09-29T10:35:49.928Z,56.55
2018-09-29T10:36:49.940Z,54.41
2018-09-29T10:37:49.909Z,54.92
2018-09-29T10:38:49.897Z,55.22
2018-09-29T10:39:49.942Z,54.72
2018-09-29T10:40:49.879Z,56.52
2018-09-29T10:41:49.906Z,54.69
2018-09-29T10:42:49.861Z,55.20
2018-09-29T10:43:49.842Z,55.10
2018-09-29T10:44:49.848Z,54.39
2018-09-29T10:45:49.822Z,53.88
2018-09-29T10:46:49.859Z,54.59
2018-09-29T10:47:49.825Z,54.79
2018-09-29T10:48:49.796Z,54.87
2018-09-29T10:49:49.772Z,54.97
2018-09-29T10:50:49.764Z,53.24
2018-09-29T10:51:49.768Z,52.76
2018-09-29T10:52:49.763Z,52.56
2018-09-29T10:53:49.734Z,53.27
2018-09-29T10:54:49.729Z,54.18
2018-09-29T10:55:49.712Z,54.08
2018-09-29T10:56:49.710Z,56.32
2018-09-29T10:57:49.702Z,55.10
2018-09-29T10:58:49.681Z,54.36
2018-09-29T10:59:49.664Z,53.75
2018-09-29T11:00:49.668Z,52.86
2018-09-29T11:01:49.645Z,54.26
2018-09-29T11:02:49.666Z,55.38
2018-09-29T11:03:49.647Z,55.18
2018-09-29T11:04:49.616Z,55.18
2018-09-29T11:05:49.595Z,53.45
2018-09-29T11:06:49.604Z,52.94
2018-09-29T11:07:49.599Z,54.26
2018-09-29T11:08:49.630Z,53.57
2018-09-29T11:09:49.578Z,52.96
2018-09-29T11:10:49.552Z,53.47
2018-09-29T11:11:49.531Z,54.49
2018-09-29T11:12:49.533Z,53.67
2018-09-29T11:13:49.516Z,52.96
2018-09-29T11:14:49.523Z,53.67
2018-09-29T11:15:49.504Z,54.69
2018-09-29T11:16:49.494Z,52.25
2018-09-29T11:17:49.462Z,53.09
2018-09-29T11:18:49.449Z,54.08
2018-09-29T11:19:49.461Z,53.39
2018-09-29T11:20:49.458Z,52.78
2018-09-29T11:21:49.415Z,52.98
2018-09-29T11:22:49.406Z,52.89
2018-09-29T11:23:49.403Z,53.37
2018-09-29T11:24:49.406Z,53.88
2018-09-29T11:25:49.371Z,53.57
2018-09-29T11:26:49.366Z,54.77
2018-09-29T11:27:49.443Z,54.46
2018-09-29T11:28:49.338Z,53.96
2018-09-29T11:29:49.356Z,54.77
2018-09-29T11:30:49.316Z,52.84
2018-09-29T11:31:49.306Z,52.81
2018-09-29T11:32:49.291Z,52.30
2018-09-29T11:33:49.277Z,52.94
2018-09-29T11:34:49.322Z,52.63
2018-09-29T11:35:49.263Z,52.84
2018-09-29T11:36:49.253Z,55.27
2018-09-29T11:37:49.250Z,52.63
2018-09-29T11:38:49.226Z,52.33
2018-09-29T11:39:49.213Z,52.84
2018-09-29T11:40:49.231Z,53.04
2018-09-29T11:41:49.194Z,53.14
2018-09-29T11:42:49.183Z,52.91
2018-09-29T11:43:49.165Z,54.64
2018-09-29T11:44:49.192Z,52.71
2018-09-29T11:45:49.154Z,52.51
2018-09-29T11:46:49.131Z,51.79
2018-09-29T11:47:49.126Z,51.70
2018-09-29T11:48:49.119Z,52.91
2018-09-29T11:49:49.141Z,52.61
2018-09-29T11:50:49.091Z,51.06
2018-09-29T11:51:49.075Z,51.18
2018-09-29T11:52:49.065Z,51.87
2018-09-29T11:53:49.056Z,51.79
2018-09-29T11:54:49.087Z,51.70
2018-09-29T11:55:49.045Z,52.00
2018-09-29T11:56:49.027Z,50.78
2018-09-29T11:57:49.008Z,50.68
2018-09-29T11:58:49.008Z,51.90
2018-09-29T11:59:49.042Z,51.39
2018-09-29T12:00:48.974Z,51.37
2018-09-29T12:01:49.015Z,51.49
2018-09-29T12:02:48.952Z,52.00
2018-09-29T12:03:48.945Z,52.00
2018-09-29T12:04:48.971Z,51.59
2018-09-29T12:05:48.954Z,50.78
2018-09-29T12:06:48.907Z,51.37
2018-09-29T12:07:48.915Z,51.67
2018-09-29T12:08:48.905Z,50.56
2018-09-29T12:09:48.909Z,51.16
2018-09-29T12:10:48.863Z,49.82
2018-09-29T12:11:48.857Z,50.02
2018-09-29T12:12:48.846Z,51.04
2018-09-29T12:13:48.881Z,50.96
2018-09-29T12:14:48.855Z,50.12
2018-09-29T12:15:48.812Z,50.02
2018-09-29T12:16:48.829Z,50.93
2018-09-29T12:17:48.788Z,51.46
2018-09-29T12:18:48.780Z,50.53
2018-09-29T12:19:48.764Z,51.95
2018-09-29T12:20:48.749Z,52.15
2018-09-29T12:21:48.771Z,50.84
2018-09-29T12:22:48.729Z,50.23
2018-09-29T12:23:48.720Z,50.25
2018-09-29T12:24:48.711Z,52.25
2018-09-29T12:25:48.696Z,50.73
2018-09-29T12:26:48.742Z,50.73
2018-09-29T12:27:48.675Z,49.41
2018-09-29T12:28:48.673Z,49.62
2018-09-29T12:29:48.665Z,51.12
2018-09-29T12:30:48.640Z,48.91
2018-09-29T12:31:48.630Z,49.31
2018-09-29T12:32:48.646Z,49.11
2018-09-29T12:33:48.607Z,50.84
2018-09-29T12:34:48.601Z,48.99
2018-09-29T12:35:48.628Z,50.12
2018-09-29T12:36:48.587Z,49.08
2018-09-29T12:37:48.704Z,48.50
2018-09-29T12:38:48.554Z,49.21
2018-09-29T12:39:48.545Z,49.11
2018-09-29T12:40:48.558Z,48.60
2018-09-29T12:41:48.519Z,49.33
2018-09-29T12:42:48.510Z,49.52
2018-09-29T12:43:48.496Z,49.82
2018-09-29T12:44:48.539Z,49.92
2018-09-29T12:45:48.502Z,49.82
2018-09-29T12:46:48.474Z,49.31
2018-09-29T12:47:48.453Z,49.41
2018-09-29T12:48:48.441Z,49.41
2018-09-29T12:49:48.427Z,50.12
2018-09-29T12:50:48.470Z,50.93
2018-09-29T12:51:48.418Z,50.40
2018-09-29T12:52:48.402Z,49.29